sensor_id;sensor_type;location;lat;lon;timestamp;temperature;humidity
15384;DHT22;7790;53.022;12.968;2022-08-03T00:02:46;22.40;51.70
15384;DHT22;7790;53.022;12.968;2022-08-03T00:06:47;22.40;51.70
15384;DHT22;7790;53.022;12.968;2022-08-03T00:10:47;22.40;51.70
15384;DHT22;7790;53.022;12.968;2022-08-03T00:14:48;22.40;51.80
15384;DHT22;7790;53.022;12.968;2022-08-03T00:18:49;22.40;51.80
15384;DHT22;7790;53.022;12.968;2022-08-03T00:22:51;22.40;51.80
15384;DHT22;7790;53.022;12.968;2022-08-03T00:26:51;22.40;51.80
15384;DHT22;7790;53.022;12.968;2022-08-03T00:30:52;22.40;51.80
15384;DHT22;7790;53.022;12.968;2022-08-03T00:34:55;22.40;51.80
15384;DHT22;7790;53.022;12.968;2022-08-03T00:38:56;22.40;51.80
15384;DHT22;7790;53.022;12.968;2022-08-03T00:42:59;22.40;51.80
15384;DHT22;7790;53.022;12.968;2022-08-03T00:47:00;22.30;51.70
15384;DHT22;7790;53.022;12.968;2022-08-03T00:51:01;22.30;51.70
15384;DHT22;7790;53.022;12.968;2022-08-03T00:55:03;22.30;51.70
15384;DHT22;7790;53.022;12.968;2022-08-03T00:59:04;22.30;51.70
15384;DHT22;7790;53.022;12.968;2022-08-03T01:03:06;22.30;51.70
15384;DHT22;7790;53.022;12.968;2022-08-03T01:07:26;22.30;51.70
15384;DHT22;7790;53.022;12.968;2022-08-03T01:20:04;22.30;51.80
15384;DHT22;7790;53.022;12.968;2022-08-03T01:33:36;22.30;51.90
15384;DHT22;7790;53.022;12.968;2022-08-03T01:37:25;22.30;52.00
15384;DHT22;7790;53.022;12.968;2022-08-03T01:41:35;22.30;52.00
15384;DHT22;7790;53.022;12.968;2022-08-03T01:45:38;22.30;52.00
15384;DHT22;7790;53.022;12.968;2022-08-03T01:49:42;22.30;52.10
15384;DHT22;7790;53.022;12.968;2022-08-03T01:53:44;22.30;52.10
15384;DHT22;7790;53.022;12.968;2022-08-03T01:57:48;22.30;52.10
15384;DHT22;7790;53.022;12.968;2022-08-03T02:01:49;22.30;52.20
15384;DHT22;7790;53.022;12.968;2022-08-03T02:05:52;22.30;52.20
15384;DHT22;7790;53.022;12.968;2022-08-03T02:09:55;22.30;52.20
15384;DHT22;7790;53.022;12.968;2022-08-03T02:13:59;22.30;52.20
15384;DHT22;7790;53.022;12.968;2022-08-03T02:18:05;22.30;52.20
15384;DHT22;7790;53.022;12.968;2022-08-03T02:22:09;22.30;52.20
15384;DHT22;7790;53.022;12.968;2022-08-03T02:26:14;22.30;52.20
15384;DHT22;7790;53.022;12.968;2022-08-03T02:30:16;22.30;52.20
15384;DHT22;7790;53.022;12.968;2022-08-03T02:34:20;22.20;52.20
15384;DHT22;7790;53.022;12.968;2022-08-03T02:38:27;22.20;52.20
15384;DHT22;7790;53.022;12.968;2022-08-03T02:42:29;22.30;52.30
15384;DHT22;7790;53.022;12.968;2022-08-03T02:46:35;22.20;52.20
15384;DHT22;7790;53.022;12.968;2022-08-03T02:50:38;22.30;52.20
15384;DHT22;7790;53.022;12.968;2022-08-03T02:54:40;22.20;52.20
15384;DHT22;7790;53.022;12.968;2022-08-03T02:58:44;22.20;52.20
15384;DHT22;7790;53.022;12.968;2022-08-03T03:02:46;22.20;52.20
15384;DHT22;7790;53.022;12.968;2022-08-03T03:06:48;22.20;52.20
15384;DHT22;7790;53.022;12.968;2022-08-03T03:10:50;22.20;52.10
15384;DHT22;7790;53.022;12.968;2022-08-03T03:14:51;22.20;52.10
15384;DHT22;7790;53.022;12.968;2022-08-03T03:18:53;22.20;52.10
15384;DHT22;7790;53.022;12.968;2022-08-03T03:22:55;22.20;52.00
15384;DHT22;7790;53.022;12.968;2022-08-03T03:26:58;22.20;52.00
15384;DHT22;7790;53.022;12.968;2022-08-03T03:30:59;22.20;52.00
15384;DHT22;7790;53.022;12.968;2022-08-03T03:35:01;22.20;52.00
15384;DHT22;7790;53.022;12.968;2022-08-03T03:39:02;22.10;52.00
15384;DHT22;7790;53.022;12.968;2022-08-03T03:43:07;22.10;52.00
15384;DHT22;7790;53.022;12.968;2022-08-03T03:47:08;22.10;52.00
15384;DHT22;7790;53.022;12.968;2022-08-03T03:51:09;22.10;52.00
15384;DHT22;7790;53.022;12.968;2022-08-03T03:55:15;22.10;52.00
15384;DHT22;7790;53.022;12.968;2022-08-03T03:59:16;22.10;52.00
15384;DHT22;7790;53.022;12.968;2022-08-03T04:03:17;22.10;52.50
15384;DHT22;7790;53.022;12.968;2022-08-03T04:07:18;22.10;52.00
15384;DHT22;7790;53.022;12.968;2022-08-03T04:11:41;22.10;52.00
15384;DHT22;7790;53.022;12.968;2022-08-03T04:15:43;22.10;52.00
15384;DHT22;7790;53.022;12.968;2022-08-03T04:19:48;22.10;52.00
15384;DHT22;7790;53.022;12.968;2022-08-03T04:23:54;22.10;52.00
15384;DHT22;7790;53.022;12.968;2022-08-03T04:27:56;22.10;52.00
15384;DHT22;7790;53.022;12.968;2022-08-03T04:31:59;22.10;52.00
15384;DHT22;7790;53.022;12.968;2022-08-03T04:36:03;22.10;52.00
15384;DHT22;7790;53.022;12.968;2022-08-03T04:40:10;22.00;52.10
15384;DHT22;7790;53.022;12.968;2022-08-03T04:44:13;21.60;52.90
15384;DHT22;7790;53.022;12.968;2022-08-03T04:48:16;21.30;53.90
15384;DHT22;7790;53.022;12.968;2022-08-03T04:52:17;21.10;54.60
15384;DHT22;7790;53.022;12.968;2022-08-03T04:56:18;21.10;54.90
15384;DHT22;7790;53.022;12.968;2022-08-03T05:00:19;21.00;55.10
15384;DHT22;7790;53.022;12.968;2022-08-03T05:04:20;21.00;55.40
15384;DHT22;7790;53.022;12.968;2022-08-03T05:08:22;21.00;55.10
15384;DHT22;7790;53.022;12.968;2022-08-03T05:12:23;21.00;54.70
15384;DHT22;7790;53.022;12.968;2022-08-03T05:16:24;21.10;54.40
15384;DHT22;7790;53.022;12.968;2022-08-03T05:20:25;21.10;54.80
15384;DHT22;7790;53.022;12.968;2022-08-03T05:24:26;21.10;54.20
15384;DHT22;7790;53.022;12.968;2022-08-03T05:28:27;21.10;54.40
15384;DHT22;7790;53.022;12.968;2022-08-03T05:32:27;21.20;54.70
15384;DHT22;7790;53.022;12.968;2022-08-03T05:36:28;21.20;54.80
15384;DHT22;7790;53.022;12.968;2022-08-03T05:40:29;21.30;54.00
15384;DHT22;7790;53.022;12.968;2022-08-03T05:44:30;21.30;53.60
15384;DHT22;7790;53.022;12.968;2022-08-03T05:48:31;21.30;53.80
15384;DHT22;7790;53.022;12.968;2022-08-03T05:52:32;21.30;53.70
15384;DHT22;7790;53.022;12.968;2022-08-03T05:56:33;21.40;54.00
15384;DHT22;7790;53.022;12.968;2022-08-03T06:00:34;21.40;53.90
15384;DHT22;7790;53.022;12.968;2022-08-03T06:04:35;21.40;53.00
15384;DHT22;7790;53.022;12.968;2022-08-03T06:08:36;21.40;53.20
15384;DHT22;7790;53.022;12.968;2022-08-03T06:12:36;21.50;53.30
15384;DHT22;7790;53.022;12.968;2022-08-03T06:16:40;21.50;53.20
15384;DHT22;7790;53.022;12.968;2022-08-03T06:20:41;21.60;53.30
15384;DHT22;7790;53.022;12.968;2022-08-03T06:24:42;21.70;53.30
15384;DHT22;7790;53.022;12.968;2022-08-03T06:28:44;21.70;53.20
15384;DHT22;7790;53.022;12.968;2022-08-03T06:32:45;21.70;53.50
15384;DHT22;7790;53.022;12.968;2022-08-03T06:36:46;21.70;53.70
15384;DHT22;7790;53.022;12.968;2022-08-03T06:40:49;21.80;53.70
15384;DHT22;7790;53.022;12.968;2022-08-03T06:44:50;21.80;53.70
15384;DHT22;7790;53.022;12.968;2022-08-03T06:48:51;21.90;53.80
15384;DHT22;7790;53.022;12.968;2022-08-03T06:52:52;21.90;53.80
15384;DHT22;7790;53.022;12.968;2022-08-03T06:56:53;22.00;53.80
15384;DHT22;7790;53.022;12.968;2022-08-03T07:00:54;22.00;53.80
15384;DHT22;7790;53.022;12.968;2022-08-03T07:04:55;22.00;53.70
15384;DHT22;7790;53.022;12.968;2022-08-03T07:08:56;22.10;53.80
15384;DHT22;7790;53.022;12.968;2022-08-03T07:12:59;22.10;53.70
15384;DHT22;7790;53.022;12.968;2022-08-03T07:17:00;22.10;53.60
15384;DHT22;7790;53.022;12.968;2022-08-03T07:21:00;22.20;53.50
15384;DHT22;7790;53.022;12.968;2022-08-03T07:25:02;22.20;53.70
15384;DHT22;7790;53.022;12.968;2022-08-03T07:29:03;22.30;53.60
15384;DHT22;7790;53.022;12.968;2022-08-03T07:33:03;22.30;53.50
15384;DHT22;7790;53.022;12.968;2022-08-03T07:37:04;22.30;53.50
15384;DHT22;7790;53.022;12.968;2022-08-03T07:41:05;22.40;53.50
15384;DHT22;7790;53.022;12.968;2022-08-03T07:45:07;22.40;53.50
15384;DHT22;7790;53.022;12.968;2022-08-03T07:49:08;22.40;53.40
15384;DHT22;7790;53.022;12.968;2022-08-03T07:53:09;22.50;53.40
15384;DHT22;7790;53.022;12.968;2022-08-03T07:57:10;22.50;53.30
15384;DHT22;7790;53.022;12.968;2022-08-03T08:01:11;22.50;53.30
15384;DHT22;7790;53.022;12.968;2022-08-03T08:05:12;22.60;53.30
15384;DHT22;7790;53.022;12.968;2022-08-03T08:09:13;22.60;53.30
15384;DHT22;7790;53.022;12.968;2022-08-03T08:13:14;22.60;53.20
15384;DHT22;7790;53.022;12.968;2022-08-03T08:17:15;22.70;53.10
15384;DHT22;7790;53.022;12.968;2022-08-03T08:21:16;22.70;52.90
15384;DHT22;7790;53.022;12.968;2022-08-03T08:25:17;22.80;52.90
15384;DHT22;7790;53.022;12.968;2022-08-03T08:29:17;22.80;52.90
15384;DHT22;7790;53.022;12.968;2022-08-03T08:33:22;22.80;52.90
15384;DHT22;7790;53.022;12.968;2022-08-03T08:37:23;22.80;52.90
15384;DHT22;7790;53.022;12.968;2022-08-03T08:41:24;22.80;52.70
15384;DHT22;7790;53.022;12.968;2022-08-03T08:45:25;22.80;52.70
15384;DHT22;7790;53.022;12.968;2022-08-03T08:49:27;22.90;52.60
15384;DHT22;7790;53.022;12.968;2022-08-03T08:53:29;22.90;52.50
15384;DHT22;7790;53.022;12.968;2022-08-03T08:57:44;22.90;52.50
15384;DHT22;7790;53.022;12.968;2022-08-03T09:01:47;22.90;52.40
15384;DHT22;7790;53.022;12.968;2022-08-03T09:05:48;23.00;52.40
15384;DHT22;7790;53.022;12.968;2022-08-03T09:09:49;23.00;52.30
15384;DHT22;7790;53.022;12.968;2022-08-03T09:13:50;23.00;52.20
15384;DHT22;7790;53.022;12.968;2022-08-03T09:17:54;23.00;52.20
15384;DHT22;7790;53.022;12.968;2022-08-03T09:22:15;23.00;52.20
15384;DHT22;7790;53.022;12.968;2022-08-03T09:26:22;23.10;52.10
15384;DHT22;7790;53.022;12.968;2022-08-03T09:30:23;23.10;52.00
15384;DHT22;7790;53.022;12.968;2022-08-03T09:34:25;23.10;51.90
15384;DHT22;7790;53.022;12.968;2022-08-03T09:38:28;23.10;51.90
15384;DHT22;7790;53.022;12.968;2022-08-03T09:42:29;23.10;52.00
15384;DHT22;7790;53.022;12.968;2022-08-03T09:46:29;23.20;52.10
15384;DHT22;7790;53.022;12.968;2022-08-03T09:50:47;23.20;52.10
15384;DHT22;7790;53.022;12.968;2022-08-03T09:54:51;23.20;51.90
15384;DHT22;7790;53.022;12.968;2022-08-03T09:58:52;23.20;51.90
15384;DHT22;7790;53.022;12.968;2022-08-03T10:03:03;23.20;51.80
15384;DHT22;7790;53.022;12.968;2022-08-03T10:07:09;23.30;51.80
15384;DHT22;7790;53.022;12.968;2022-08-03T10:11:10;23.30;51.90
15384;DHT22;7790;53.022;12.968;2022-08-03T10:15:11;23.30;51.80
15384;DHT22;7790;53.022;12.968;2022-08-03T10:19:12;23.30;51.60
15384;DHT22;7790;53.022;12.968;2022-08-03T10:23:16;23.30;51.60
15384;DHT22;7790;53.022;12.968;2022-08-03T10:27:22;23.30;51.50
15384;DHT22;7790;53.022;12.968;2022-08-03T10:31:24;23.40;51.50
15384;DHT22;7790;53.022;12.968;2022-08-03T10:35:26;23.40;51.70
15384;DHT22;7790;53.022;12.968;2022-08-03T10:39:29;23.40;51.60
15384;DHT22;7790;53.022;12.968;2022-08-03T10:47:55;23.40;51.60
15384;DHT22;7790;53.022;12.968;2022-08-03T10:51:56;23.40;51.50
15384;DHT22;7790;53.022;12.968;2022-08-03T10:55:57;23.50;51.80
15384;DHT22;7790;53.022;12.968;2022-08-03T11:00:19;23.50;51.70
15384;DHT22;7790;53.022;12.968;2022-08-03T11:04:21;23.50;51.50
15384;DHT22;7790;53.022;12.968;2022-08-03T11:08:26;23.50;51.60
15384;DHT22;7790;53.022;12.968;2022-08-03T11:12:32;23.50;52.20
15384;DHT22;7790;53.022;12.968;2022-08-03T11:16:39;23.50;51.50
15384;DHT22;7790;53.022;12.968;2022-08-03T11:20:52;23.50;51.60
15384;DHT22;7790;53.022;12.968;2022-08-03T11:24:56;23.60;51.60
15384;DHT22;7790;53.022;12.968;2022-08-03T11:29:29;23.50;51.60
15384;DHT22;7790;53.022;12.968;2022-08-03T11:33:30;23.60;51.70
15384;DHT22;7790;53.022;12.968;2022-08-03T11:37:31;23.60;51.60
15384;DHT22;7790;53.022;12.968;2022-08-03T11:41:32;23.70;51.60
15384;DHT22;7790;53.022;12.968;2022-08-03T11:45:35;23.70;51.60
15384;DHT22;7790;53.022;12.968;2022-08-03T11:49:37;23.70;51.60
15384;DHT22;7790;53.022;12.968;2022-08-03T11:53:38;23.70;51.60
15384;DHT22;7790;53.022;12.968;2022-08-03T11:57:39;23.70;51.60
15384;DHT22;7790;53.022;12.968;2022-08-03T12:01:40;23.70;51.60
15384;DHT22;7790;53.022;12.968;2022-08-03T12:14:07;23.70;51.60
15384;DHT22;7790;53.022;12.968;2022-08-03T12:18:16;23.70;51.70
15384;DHT22;7790;53.022;12.968;2022-08-03T12:22:39;23.70;51.60
15384;DHT22;7790;53.022;12.968;2022-08-03T12:26:48;23.70;51.60
15384;DHT22;7790;53.022;12.968;2022-08-03T12:30:51;23.70;51.70
15384;DHT22;7790;53.022;12.968;2022-08-03T12:34:52;23.70;51.70
15384;DHT22;7790;53.022;12.968;2022-08-03T12:38:58;23.70;51.80
15384;DHT22;7790;53.022;12.968;2022-08-03T12:43:00;23.70;51.70
15384;DHT22;7790;53.022;12.968;2022-08-03T12:47:02;23.70;51.70
15384;DHT22;7790;53.022;12.968;2022-08-03T12:51:10;23.70;51.70
15384;DHT22;7790;53.022;12.968;2022-08-03T12:55:18;23.70;51.70
15384;DHT22;7790;53.022;12.968;2022-08-03T12:59:27;23.70;51.90
15384;DHT22;7790;53.022;12.968;2022-08-03T13:03:28;23.70;52.50
15384;DHT22;7790;53.022;12.968;2022-08-03T13:07:45;23.70;52.00
15384;DHT22;7790;53.022;12.968;2022-08-03T13:11:46;23.70;51.90
15384;DHT22;7790;53.022;12.968;2022-08-03T13:16:03;23.70;52.00
15384;DHT22;7790;53.022;12.968;2022-08-03T13:20:05;23.70;52.20
15384;DHT22;7790;53.022;12.968;2022-08-03T13:24:06;23.70;52.40
15384;DHT22;7790;53.022;12.968;2022-08-03T13:28:07;23.70;52.60
15384;DHT22;7790;53.022;12.968;2022-08-03T13:32:08;23.70;52.60
15384;DHT22;7790;53.022;12.968;2022-08-03T13:36:09;23.60;52.60
15384;DHT22;7790;53.022;12.968;2022-08-03T13:40:10;23.60;52.60
15384;DHT22;7790;53.022;12.968;2022-08-03T13:44:11;23.60;52.70
15384;DHT22;7790;53.022;12.968;2022-08-03T13:48:12;23.70;52.70
15384;DHT22;7790;53.022;12.968;2022-08-03T13:52:13;23.60;52.50
15384;DHT22;7790;53.022;12.968;2022-08-03T13:56:14;23.60;52.60
15384;DHT22;7790;53.022;12.968;2022-08-03T14:00:16;23.60;52.60
15384;DHT22;7790;53.022;12.968;2022-08-03T14:04:18;23.60;52.60
15384;DHT22;7790;53.022;12.968;2022-08-03T14:08:19;23.60;52.70
15384;DHT22;7790;53.022;12.968;2022-08-03T14:12:20;23.60;52.90
15384;DHT22;7790;53.022;12.968;2022-08-03T14:16:20;23.60;52.70
15384;DHT22;7790;53.022;12.968;2022-08-03T14:20:21;23.60;52.80
15384;DHT22;7790;53.022;12.968;2022-08-03T14:24:22;23.60;53.00
15384;DHT22;7790;53.022;12.968;2022-08-03T14:28:23;23.60;53.20
15384;DHT22;7790;53.022;12.968;2022-08-03T14:32:25;23.60;53.10
15384;DHT22;7790;53.022;12.968;2022-08-03T14:36:26;23.60;53.20
15384;DHT22;7790;53.022;12.968;2022-08-03T14:40:27;23.60;53.30
15384;DHT22;7790;53.022;12.968;2022-08-03T14:44:28;23.70;53.40
15384;DHT22;7790;53.022;12.968;2022-08-03T14:48:29;23.70;53.40
15384;DHT22;7790;53.022;12.968;2022-08-03T14:52:31;23.70;53.60
15384;DHT22;7790;53.022;12.968;2022-08-03T14:56:32;23.70;53.80
15384;DHT22;7790;53.022;12.968;2022-08-03T15:00:34;23.70;54.50
15384;DHT22;7790;53.022;12.968;2022-08-03T15:04:35;23.70;54.40
15384;DHT22;7790;53.022;12.968;2022-08-03T15:08:36;23.70;54.30
15384;DHT22;7790;53.022;12.968;2022-08-03T15:12:37;23.70;54.50
15384;DHT22;7790;53.022;12.968;2022-08-03T15:16:38;23.80;54.60
15384;DHT22;7790;53.022;12.968;2022-08-03T15:20:39;23.80;54.60
15384;DHT22;7790;53.022;12.968;2022-08-03T15:24:40;23.80;54.50
15384;DHT22;7790;53.022;12.968;2022-08-03T15:28:41;23.80;54.60
15384;DHT22;7790;53.022;12.968;2022-08-03T15:32:42;23.90;54.50
15384;DHT22;7790;53.022;12.968;2022-08-03T15:36:43;23.90;54.50
15384;DHT22;7790;53.022;12.968;2022-08-03T15:40:44;23.90;54.50
15384;DHT22;7790;53.022;12.968;2022-08-03T15:44:45;23.90;54.50
15384;DHT22;7790;53.022;12.968;2022-08-03T15:48:46;23.90;54.40
15384;DHT22;7790;53.022;12.968;2022-08-03T15:52:47;23.90;54.40
15384;DHT22;7790;53.022;12.968;2022-08-03T15:56:47;24.00;54.40
15384;DHT22;7790;53.022;12.968;2022-08-03T16:00:49;24.00;54.40
15384;DHT22;7790;53.022;12.968;2022-08-03T16:04:49;24.00;54.30
15384;DHT22;7790;53.022;12.968;2022-08-03T16:08:51;24.00;54.40
15384;DHT22;7790;53.022;12.968;2022-08-03T16:12:52;24.00;54.40
15384;DHT22;7790;53.022;12.968;2022-08-03T16:16:53;24.00;54.50
15384;DHT22;7790;53.022;12.968;2022-08-03T16:20:54;24.00;54.60
15384;DHT22;7790;53.022;12.968;2022-08-03T16:24:55;24.00;54.50
15384;DHT22;7790;53.022;12.968;2022-08-03T16:28:55;24.00;54.40
15384;DHT22;7790;53.022;12.968;2022-08-03T16:32:56;24.00;54.40
15384;DHT22;7790;53.022;12.968;2022-08-03T16:36:57;23.90;54.40
15384;DHT22;7790;53.022;12.968;2022-08-03T16:40:58;23.90;54.40
15384;DHT22;7790;53.022;12.968;2022-08-03T16:44:59;24.00;54.30
15384;DHT22;7790;53.022;12.968;2022-08-03T16:49:00;23.90;54.30
15384;DHT22;7790;53.022;12.968;2022-08-03T16:53:04;23.90;54.20
15384;DHT22;7790;53.022;12.968;2022-08-03T16:57:06;23.90;54.20
15384;DHT22;7790;53.022;12.968;2022-08-03T17:01:11;23.90;54.10
15384;DHT22;7790;53.022;12.968;2022-08-03T17:05:12;23.90;54.20
15384;DHT22;7790;53.022;12.968;2022-08-03T17:09:15;23.90;54.10
15384;DHT22;7790;53.022;12.968;2022-08-03T17:13:18;23.90;54.10
15384;DHT22;7790;53.022;12.968;2022-08-03T17:17:30;23.90;54.10
15384;DHT22;7790;53.022;12.968;2022-08-03T17:21:34;23.90;54.10
15384;DHT22;7790;53.022;12.968;2022-08-03T17:25:37;23.90;54.70
15384;DHT22;7790;53.022;12.968;2022-08-03T17:29:39;23.80;54.00
15384;DHT22;7790;53.022;12.968;2022-08-03T17:33:44;23.80;54.00
15384;DHT22;7790;53.022;12.968;2022-08-03T17:37:46;23.80;53.90
15384;DHT22;7790;53.022;12.968;2022-08-03T17:41:47;23.80;54.00
15384;DHT22;7790;53.022;12.968;2022-08-03T17:45:48;23.80;53.90
15384;DHT22;7790;53.022;12.968;2022-08-03T17:49:49;23.80;54.00
15384;DHT22;7790;53.022;12.968;2022-08-03T17:58:18;23.80;54.00
15384;DHT22;7790;53.022;12.968;2022-08-03T18:02:35;23.80;53.90
15384;DHT22;7790;53.022;12.968;2022-08-03T18:06:57;23.80;53.90
15384;DHT22;7790;53.022;12.968;2022-08-03T18:11:03;23.80;54.40
15384;DHT22;7790;53.022;12.968;2022-08-03T18:15:05;23.80;54.00
15384;DHT22;7790;53.022;12.968;2022-08-03T18:19:06;23.80;54.00
15384;DHT22;7790;53.022;12.968;2022-08-03T18:23:10;23.80;53.90
15384;DHT22;7790;53.022;12.968;2022-08-03T18:27:13;23.80;53.90
15384;DHT22;7790;53.022;12.968;2022-08-03T18:31:15;23.80;53.90
15384;DHT22;7790;53.022;12.968;2022-08-03T18:35:18;23.80;53.80
15384;DHT22;7790;53.022;12.968;2022-08-03T18:39:19;23.80;53.70
15384;DHT22;7790;53.022;12.968;2022-08-03T18:43:20;23.90;53.80
15384;DHT22;7790;53.022;12.968;2022-08-03T18:51:37;23.80;53.90
15384;DHT22;7790;53.022;12.968;2022-08-03T18:55:47;23.90;54.20
15384;DHT22;7790;53.022;12.968;2022-08-03T19:00:11;23.90;54.20
15384;DHT22;7790;53.022;12.968;2022-08-03T19:04:22;23.90;54.20
15384;DHT22;7790;53.022;12.968;2022-08-03T19:08:31;23.90;54.40
15384;DHT22;7790;53.022;12.968;2022-08-03T19:12:37;23.90;54.40
15384;DHT22;7790;53.022;12.968;2022-08-03T19:16:39;23.90;54.40
15384;DHT22;7790;53.022;12.968;2022-08-03T19:20:43;23.90;54.50
15384;DHT22;7790;53.022;12.968;2022-08-03T19:24:47;23.90;54.50
15384;DHT22;7790;53.022;12.968;2022-08-03T19:28:56;23.90;54.60
15384;DHT22;7790;53.022;12.968;2022-08-03T19:33:08;23.90;54.50
15384;DHT22;7790;53.022;12.968;2022-08-03T19:37:12;23.90;54.50
15384;DHT22;7790;53.022;12.968;2022-08-03T19:41:16;23.90;54.80
15384;DHT22;7790;53.022;12.968;2022-08-03T19:45:24;23.90;54.90
15384;DHT22;7790;53.022;12.968;2022-08-03T19:49:32;23.90;55.30
15384;DHT22;7790;53.022;12.968;2022-08-03T19:53:36;23.90;55.30
15384;DHT22;7790;53.022;12.968;2022-08-03T19:57:42;24.00;55.10
15384;DHT22;7790;53.022;12.968;2022-08-03T20:01:45;24.00;55.20
15384;DHT22;7790;53.022;12.968;2022-08-03T20:05:46;24.00;55.20
15384;DHT22;7790;53.022;12.968;2022-08-03T20:09:47;24.00;54.90
15384;DHT22;7790;53.022;12.968;2022-08-03T20:13:47;24.00;54.40
15384;DHT22;7790;53.022;12.968;2022-08-03T20:17:52;24.00;54.70
15384;DHT22;7790;53.022;12.968;2022-08-03T20:21:53;23.90;53.80
15384;DHT22;7790;53.022;12.968;2022-08-03T20:25:56;23.90;53.90
15384;DHT22;7790;53.022;12.968;2022-08-03T20:30:00;23.90;53.50
15384;DHT22;7790;53.022;12.968;2022-08-03T20:34:02;23.90;53.10
15384;DHT22;7790;53.022;12.968;2022-08-03T20:38:03;23.90;53.30
15384;DHT22;7790;53.022;12.968;2022-08-03T20:42:04;23.80;53.30
15384;DHT22;7790;53.022;12.968;2022-08-03T20:46:04;23.80;53.30
15384;DHT22;7790;53.022;12.968;2022-08-03T20:50:07;23.80;53.40
15384;DHT22;7790;53.022;12.968;2022-08-03T20:54:08;23.80;53.30
15384;DHT22;7790;53.022;12.968;2022-08-03T20:58:10;23.80;53.20
15384;DHT22;7790;53.022;12.968;2022-08-03T21:02:11;23.70;53.20
15384;DHT22;7790;53.022;12.968;2022-08-03T21:06:17;23.70;53.20
15384;DHT22;7790;53.022;12.968;2022-08-03T21:10:19;23.70;53.10
15384;DHT22;7790;53.022;12.968;2022-08-03T21:14:53;23.70;53.00
15384;DHT22;7790;53.022;12.968;2022-08-03T21:18:58;23.70;53.00
15384;DHT22;7790;53.022;12.968;2022-08-03T21:23:01;23.60;53.10
15384;DHT22;7790;53.022;12.968;2022-08-03T21:27:03;23.60;53.10
15384;DHT22;7790;53.022;12.968;2022-08-03T21:31:04;23.50;53.00
15384;DHT22;7790;53.022;12.968;2022-08-03T21:35:07;23.50;53.20
15384;DHT22;7790;53.022;12.968;2022-08-03T21:39:10;23.50;53.20
15384;DHT22;7790;53.022;12.968;2022-08-03T21:43:11;23.50;53.20
15384;DHT22;7790;53.022;12.968;2022-08-03T21:47:12;23.50;53.10
15384;DHT22;7790;53.022;12.968;2022-08-03T21:51:15;23.40;53.00
15384;DHT22;7790;53.022;12.968;2022-08-03T21:55:16;23.40;52.90
15384;DHT22;7790;53.022;12.968;2022-08-03T21:59:18;23.40;52.80
15384;DHT22;7790;53.022;12.968;2022-08-03T22:03:23;23.40;52.90
15384;DHT22;7790;53.022;12.968;2022-08-03T22:07:26;23.40;52.90
15384;DHT22;7790;53.022;12.968;2022-08-03T22:11:27;23.30;52.90
15384;DHT22;7790;53.022;12.968;2022-08-03T22:15:29;23.30;52.80
15384;DHT22;7790;53.022;12.968;2022-08-03T22:19:30;23.30;52.80
15384;DHT22;7790;53.022;12.968;2022-08-03T22:23:36;23.20;52.80
15384;DHT22;7790;53.022;12.968;2022-08-03T22:27:40;23.20;52.70
15384;DHT22;7790;53.022;12.968;2022-08-03T22:31:41;23.20;52.80
15384;DHT22;7790;53.022;12.968;2022-08-03T22:35:44;23.10;52.60
15384;DHT22;7790;53.022;12.968;2022-08-03T22:39:46;23.10;52.90
15384;DHT22;7790;53.022;12.968;2022-08-03T22:43:47;23.10;52.90
15384;DHT22;7790;53.022;12.968;2022-08-03T22:47:50;23.10;52.60
15384;DHT22;7790;53.022;12.968;2022-08-03T22:51:51;23.00;52.60
15384;DHT22;7790;53.022;12.968;2022-08-03T22:55:53;23.00;52.70
15384;DHT22;7790;53.022;12.968;2022-08-03T22:59:55;22.90;52.80
15384;DHT22;7790;53.022;12.968;2022-08-03T23:03:58;22.90;53.00
15384;DHT22;7790;53.022;12.968;2022-08-03T23:08:03;22.90;53.20
15384;DHT22;7790;53.022;12.968;2022-08-03T23:12:04;22.80;53.20
15384;DHT22;7790;53.022;12.968;2022-08-03T23:16:05;22.80;53.40
15384;DHT22;7790;53.022;12.968;2022-08-03T23:20:08;22.70;53.90
15384;DHT22;7790;53.022;12.968;2022-08-03T23:24:09;22.70;53.40
15384;DHT22;7790;53.022;12.968;2022-08-03T23:28:13;22.70;53.30
15384;DHT22;7790;53.022;12.968;2022-08-03T23:32:19;22.70;53.40
15384;DHT22;7790;53.022;12.968;2022-08-03T23:36:20;22.70;53.70
15384;DHT22;7790;53.022;12.968;2022-08-03T23:40:26;22.60;53.50
15384;DHT22;7790;53.022;12.968;2022-08-03T23:44:32;22.60;53.60
15384;DHT22;7790;53.022;12.968;2022-08-03T23:48:34;22.60;53.70
15384;DHT22;7790;53.022;12.968;2022-08-03T23:53:02;22.50;53.70
15384;DHT22;7790;53.022;12.968;2022-08-03T23:57:28;22.50;54.00
